createdAt,value
2022-09-03T00:00:56.989Z,93.10
2022-09-03T00:03:43.642Z,93.10
2022-09-03T00:06:17.985Z,93.20
2022-09-03T00:08:53.220Z,93.30
2022-09-03T00:11:32.661Z,93.50
2022-09-03T00:14:03.460Z,92.80
2022-09-03T00:16:51.277Z,93.30
2022-09-03T00:19:23.430Z,93.10
2022-09-03T00:22:19.348Z,93.10
2022-09-03T00:24:48.966Z,93.70
2022-09-03T00:27:26.406Z,93.60
2022-09-03T00:30:01.753Z,93.20
2022-09-03T00:32:41.897Z,93.70
2022-09-03T00:35:18.202Z,93.90
2022-09-03T00:37:45.433Z,93.60
2022-09-03T00:40:50.420Z,94.00
2022-09-03T00:43:48.305Z,94.60
2022-09-03T00:46:35.294Z,94.20
2022-09-03T00:49:30.419Z,94.20
2022-09-03T00:52:20.426Z,94.00
2022-09-03T00:55:27.557Z,94.10
2022-09-03T00:58:00.662Z,94.70
2022-09-03T01:00:29.287Z,94.70
2022-09-03T01:03:09.799Z,94.50
2022-09-03T01:05:39.513Z,94.80
2022-09-03T01:08:35.415Z,95.20
2022-09-03T01:11:22.169Z,94.90
2022-09-03T01:14:06.561Z,94.50
2022-09-03T01:17:07.189Z,94.50
2022-09-03T01:20:03.423Z,94.90
2022-09-03T01:22:39.631Z,95.30
2022-09-03T01:25:22.861Z,94.90
2022-09-03T01:28:10.359Z,95.00
2022-09-03T01:30:49.476Z,94.50
2022-09-03T01:33:38.811Z,95.10
2022-09-03T01:36:22.610Z,95.30
2022-09-03T01:38:59.449Z,95.90
2022-09-03T01:42:00.315Z,95.70
2022-09-03T01:45:01.949Z,95.90
2022-09-03T01:48:20.110Z,96.40
2022-09-03T01:50:52.448Z,96.00
2022-09-03T01:53:47.470Z,96.40
2022-09-03T01:56:52.272Z,96.10
2022-09-03T01:59:44.476Z,96.30
2022-09-03T02:02:26.257Z,96.40
2022-09-03T02:05:09.301Z,96.00
2022-09-03T02:07:40.098Z,96.30
2022-09-03T02:10:13.591Z,96.20
2022-09-03T02:12:44.385Z,96.90
2022-09-03T02:15:14.757Z,97.20
2022-09-03T02:17:45.930Z,96.80
2022-09-03T02:20:20.379Z,97.00
2022-09-03T02:22:49.789Z,97.40
2022-09-03T02:25:17.918Z,97.20
2022-09-03T02:27:46.321Z,97.40
2022-09-03T02:30:13.785Z,97.50
2022-09-03T02:32:41.655Z,97.80
2022-09-03T02:35:09.507Z,98.10
2022-09-03T02:37:36.653Z,98.40
2022-09-03T02:40:08.943Z,98.70
2022-09-03T02:42:37.005Z,97.90
2022-09-03T02:45:19.623Z,97.50
2022-09-03T02:47:49.527Z,98.10
2022-09-03T02:50:16.760Z,97.70
2022-09-03T02:52:43.906Z,97.20
2022-09-03T02:55:11.287Z,97.80
2022-09-03T02:57:38.602Z,97.60
2022-09-03T03:00:06.439Z,98.10
2022-09-03T03:02:33.696Z,98.60
2022-09-03T03:05:02.383Z,98.70
2022-09-03T03:07:38.111Z,99.00
2022-09-03T03:10:05.792Z,99.90
2022-09-03T03:12:35.575Z,99.90
2022-09-03T03:15:03.357Z,99.90
2022-09-03T03:17:30.913Z,99.90
2022-09-03T03:19:58.200Z,99.90
2022-09-03T03:22:25.662Z,99.90
2022-09-03T03:24:53.210Z,99.90
2022-09-03T03:27:21.137Z,99.90
2022-09-03T03:29:48.294Z,99.90
2022-09-03T03:32:15.461Z,99.90
2022-09-03T03:34:43.684Z,99.90
2022-09-03T03:37:10.801Z,99.90
2022-09-03T03:39:38.002Z,99.90
2022-09-03T03:42:05.297Z,99.90
2022-09-03T03:44:33.615Z,99.90
2022-09-03T03:47:00.805Z,99.90
2022-09-03T03:49:27.906Z,99.90
2022-09-03T03:51:55.121Z,99.90
2022-09-03T03:54:22.931Z,99.90
2022-09-03T03:56:55.419Z,99.90
2022-09-03T03:59:23.195Z,99.90
2022-09-03T04:01:51.052Z,99.90
2022-09-03T04:04:18.464Z,99.90
2022-09-03T04:06:45.711Z,99.90
2022-09-03T04:09:12.963Z,99.90
2022-09-03T04:11:40.204Z,99.90
2022-09-03T04:14:07.382Z,99.90
2022-09-03T04:16:34.680Z,99.90
2022-09-03T04:19:02.214Z,99.90
2022-09-03T04:21:31.050Z,99.90
2022-09-03T04:23:58.766Z,99.90
2022-09-03T04:26:31.733Z,99.90
2022-09-03T04:29:05.436Z,99.90
2022-09-03T04:31:33.347Z,99.90
2022-09-03T04:34:00.871Z,99.90
2022-09-03T04:36:31.301Z,99.90
2022-09-03T04:39:02.449Z,99.90
2022-09-03T04:41:31.232Z,99.90
2022-09-03T04:43:59.623Z,99.90
2022-09-03T04:46:33.979Z,99.90
2022-09-03T04:49:02.501Z,99.90
2022-09-03T04:51:33.148Z,99.90
2022-09-03T04:54:01.952Z,99.90
2022-09-03T04:56:35.217Z,99.90
2022-09-03T04:59:09.121Z,99.90
2022-09-03T05:01:39.374Z,99.90
2022-09-03T05:04:07.706Z,99.90
2022-09-03T05:06:37.475Z,99.90
2022-09-03T05:09:05.870Z,99.90
2022-09-03T05:11:33.475Z,99.90
2022-09-03T05:14:01.281Z,99.90
2022-09-03T05:16:30.494Z,99.90
2022-09-03T05:18:59.922Z,99.90
2022-09-03T05:21:28.897Z,99.90
2022-09-03T05:23:56.621Z,99.90
2022-09-03T05:26:28.814Z,99.90
2022-09-03T05:28:57.949Z,99.90
2022-09-03T05:31:28.448Z,99.90
2022-09-03T05:33:59.118Z,99.90
2022-09-03T05:36:28.758Z,99.90
2022-09-03T05:38:56.490Z,99.90
2022-09-03T05:41:26.294Z,99.90
2022-09-03T05:43:59.773Z,99.90
2022-09-03T05:46:33.622Z,99.90
2022-09-03T05:49:05.713Z,99.90
2022-09-03T05:51:34.328Z,99.90
2022-09-03T05:54:02.897Z,99.90
2022-09-03T05:56:31.820Z,99.90
2022-09-03T05:59:01.971Z,99.90
2022-09-03T06:01:32.249Z,99.90
2022-09-03T06:04:07.710Z,99.90
2022-09-03T06:06:37.413Z,99.90
2022-09-03T06:09:07.178Z,99.90
2022-09-03T06:11:36.167Z,99.90
2022-09-03T06:14:06.001Z,99.90
2022-09-03T06:16:35.905Z,99.90
2022-09-03T06:19:04.019Z,99.90
2022-09-03T06:21:31.089Z,99.90
2022-09-03T06:23:59.619Z,99.90
2022-09-03T06:26:28.918Z,99.90
2022-09-03T06:28:57.533Z,99.90
2022-09-03T06:31:25.405Z,99.90
2022-09-03T06:33:54.880Z,99.90
2022-09-03T06:36:24.458Z,99.90
2022-09-03T06:38:56.647Z,99.90
2022-09-03T06:41:26.317Z,99.90
2022-09-03T06:43:57.396Z,99.90
2022-09-03T06:46:25.160Z,99.90
2022-09-03T06:48:53.552Z,99.90
2022-09-03T06:51:23.675Z,99.90
2022-09-03T06:53:56.687Z,99.90
2022-09-03T06:56:27.357Z,99.90
2022-09-03T06:58:57.344Z,99.90
2022-09-03T07:01:31.691Z,99.90
2022-09-03T07:04:03.616Z,99.90
2022-09-03T07:06:39.781Z,99.90
2022-09-03T07:09:07.963Z,99.90
2022-09-03T07:11:36.142Z,99.90
2022-09-03T07:14:05.081Z,99.90
2022-09-03T07:16:37.253Z,99.90
2022-09-03T07:19:06.169Z,99.90
2022-09-03T07:21:36.956Z,99.90
2022-09-03T07:24:05.936Z,99.90
2022-09-03T07:26:36.590Z,99.90
2022-09-03T07:29:03.972Z,99.90
2022-09-03T07:31:34.211Z,99.90
2022-09-03T07:34:09.993Z,99.90
2022-09-03T07:36:47.705Z,99.90
2022-09-03T07:39:18.126Z,99.90
2022-09-03T07:41:46.610Z,99.90
2022-09-03T07:44:16.423Z,99.90
2022-09-03T07:46:45.548Z,99.90
2022-09-03T07:49:13.195Z,99.90
2022-09-03T07:51:40.666Z,99.90
2022-09-03T07:54:11.270Z,99.90
2022-09-03T07:56:40.162Z,99.90
2022-09-03T07:59:07.770Z,99.90
2022-09-03T08:01:36.048Z,99.90
2022-09-03T08:04:04.454Z,99.90
2022-09-03T08:06:34.114Z,99.90
2022-09-03T08:09:08.231Z,99.90
2022-09-03T08:11:39.548Z,99.90
2022-09-03T08:14:11.938Z,99.90
2022-09-03T08:16:42.438Z,99.90
2022-09-03T08:19:11.489Z,99.90
2022-09-03T08:21:38.709Z,99.90
2022-09-03T08:24:06.608Z,99.90
2022-09-03T08:26:36.743Z,99.90
2022-09-03T08:29:04.718Z,99.90
2022-09-03T08:31:32.964Z,99.90
2022-09-03T08:34:05.057Z,99.90
2022-09-03T08:36:35.072Z,99.90
2022-09-03T08:39:05.177Z,99.90
2022-09-03T08:41:52.980Z,99.90
2022-09-03T08:44:21.671Z,99.90
2022-09-03T08:46:48.830Z,99.90
2022-09-03T08:49:18.704Z,99.80
2022-09-03T08:51:48.149Z,99.90
2022-09-03T08:54:16.431Z,99.90
2022-09-03T08:56:44.110Z,99.70
2022-09-03T08:59:11.340Z,99.30
2022-09-03T09:01:52.169Z,99.40
2022-09-03T09:04:54.479Z,98.20
2022-09-03T09:07:31.928Z,98.80
2022-09-03T09:10:27.253Z,99.10
2022-09-03T09:13:36.855Z,99.70
2022-09-03T09:16:33.486Z,98.50
2022-09-03T09:19:13.788Z,97.80
2022-09-03T09:21:46.360Z,98.20
2022-09-03T09:24:23.449Z,97.40
2022-09-03T09:26:56.367Z,96.50
2022-09-03T09:29:32.495Z,97.10
2022-09-03T09:31:59.626Z,97.00
2022-09-03T09:34:27.861Z,97.20
2022-09-03T09:36:56.235Z,97.00
2022-09-03T09:39:23.982Z,95.80
2022-09-03T09:41:59.842Z,95.40
2022-09-03T09:44:28.753Z,95.10
2022-09-03T09:47:24.719Z,95.50
2022-09-03T09:49:55.657Z,94.70
2022-09-03T09:52:26.116Z,95.00
2022-09-03T09:55:08.157Z,94.50
2022-09-03T09:57:35.378Z,94.20
2022-09-03T10:00:09.579Z,94.00
2022-09-03T10:02:52.177Z,94.00
2022-09-03T10:05:30.792Z,93.70
2022-09-03T10:08:22.854Z,94.20
2022-09-03T10:10:51.366Z,94.10
2022-09-03T10:13:43.091Z,91.20
2022-09-03T10:16:36.737Z,90.50
2022-09-03T10:19:34.739Z,90.10
2022-09-03T10:22:19.990Z,88.30
2022-09-03T10:24:58.141Z,88.70
2022-09-03T10:27:25.920Z,88.20
2022-09-03T10:29:53.540Z,88.10
2022-09-03T10:32:39.445Z,86.80
2022-09-03T10:35:31.375Z,88.60
2022-09-03T10:38:30.153Z,87.50
2022-09-03T10:41:29.004Z,86.30
2022-09-03T10:44:20.465Z,85.50
2022-09-03T10:47:09.396Z,84.80
2022-09-03T10:50:02.243Z,84.20
2022-09-03T10:52:54.311Z,84.20
2022-09-03T10:55:45.553Z,82.70
2022-09-03T10:58:38.379Z,85.30
2022-09-03T11:01:28.207Z,86.60
2022-09-03T11:04:01.318Z,84.40
2022-09-03T11:06:30.651Z,84.80
2022-09-03T11:09:16.414Z,84.60
2022-09-03T11:11:51.524Z,85.50
2022-09-03T11:14:45.897Z,84.70
2022-09-03T11:17:28.246Z,85.60
2022-09-03T11:20:19.698Z,81.60
2022-09-03T11:22:49.536Z,82.30
2022-09-03T11:25:23.891Z,83.30
2022-09-03T11:28:08.714Z,81.70
2022-09-03T11:31:13.738Z,82.50
2022-09-03T11:34:31.705Z,84.50
2022-09-03T11:37:21.123Z,85.10
2022-09-03T11:39:58.273Z,86.00
2022-09-03T11:42:39.726Z,85.40
2022-09-03T11:45:33.138Z,86.40
2022-09-03T11:48:00.314Z,83.00
2022-09-03T11:50:33.796Z,85.10
2022-09-03T11:53:16.633Z,82.70
2022-09-03T11:55:57.316Z,83.10
2022-09-03T11:58:29.277Z,82.30
2022-09-03T12:00:58.559Z,79.90
2022-09-03T12:03:30.511Z,81.10
2022-09-03T12:06:27.868Z,81.80
2022-09-03T12:09:04.245Z,82.50
2022-09-03T12:12:00.055Z,79.90
2022-09-03T12:14:39.184Z,83.80
2022-09-03T12:17:45.236Z,86.90
2022-09-03T12:20:15.851Z,83.90
2022-09-03T12:22:43.655Z,82.90
2022-09-03T12:25:13.477Z,84.30
2022-09-03T12:27:44.410Z,86.90
2022-09-03T12:30:21.720Z,83.90
2022-09-03T12:32:50.357Z,85.80
2022-09-03T12:38:09.545Z,87.30
2022-09-03T12:43:39.147Z,88.30
2022-09-03T12:46:14.832Z,88.80
2022-09-03T12:49:30.510Z,89.70
2022-09-03T12:52:07.746Z,89.60
2022-09-03T12:54:40.810Z,90.10
2022-09-03T12:57:09.639Z,91.20
2022-09-03T12:59:39.626Z,87.70
2022-09-03T13:02:24.420Z,87.90
2022-09-03T13:04:53.432Z,86.70
2022-09-03T13:07:34.760Z,86.60
2022-09-03T13:10:07.965Z,85.90
2022-09-03T13:12:52.564Z,87.60
2022-09-03T13:15:24.055Z,87.90
2022-09-03T13:18:04.790Z,89.20
2022-09-03T13:20:47.057Z,90.40
2022-09-03T13:23:29.986Z,90.80
2022-09-03T13:26:12.041Z,91.70
2022-09-03T13:28:58.413Z,90.50
2022-09-03T13:31:36.154Z,87.30
2022-09-03T13:34:21.757Z,90.50
2022-09-03T13:37:04.782Z,91.30
2022-09-03T13:39:51.143Z,91.00
2022-09-03T13:42:33.058Z,90.40
2022-09-03T13:45:23.436Z,88.30
2022-09-03T13:48:16.207Z,92.10
2022-09-03T13:50:57.785Z,91.80
2022-09-03T13:53:45.042Z,86.20
2022-09-03T13:56:36.354Z,83.10
2022-09-03T13:59:17.364Z,83.70
2022-09-03T14:02:13.269Z,84.00
2022-09-03T14:04:57.398Z,84.60
2022-09-03T14:07:28.435Z,87.70
2022-09-03T14:10:10.333Z,88.80
2022-09-03T14:12:47.044Z,86.80
2022-09-03T14:15:54.497Z,88.90
2022-09-03T14:18:52.069Z,87.40
2022-09-03T14:21:29.527Z,89.00
2022-09-03T14:24:04.790Z,81.40
2022-09-03T14:26:41.757Z,80.70
2022-09-03T14:29:17.167Z,79.20
2022-09-03T14:31:59.425Z,79.20
2022-09-03T14:34:38.599Z,79.80
2022-09-03T14:37:24.043Z,81.50
2022-09-03T14:40:16.199Z,79.00
2022-09-03T14:43:07.950Z,81.50
2022-09-03T14:45:55.007Z,82.70
2022-09-03T14:48:40.573Z,82.60
2022-09-03T14:51:19.703Z,84.80
2022-09-03T14:53:50.455Z,85.10
2022-09-03T14:56:33.649Z,81.80
2022-09-03T14:59:12.771Z,83.30
2022-09-03T15:01:40.072Z,85.20
2022-09-03T15:04:20.334Z,86.40
2022-09-03T15:07:05.834Z,88.90
2022-09-03T15:09:39.035Z,86.30
2022-09-03T15:12:19.712Z,87.00
2022-09-03T15:14:59.037Z,86.90
2022-09-03T15:17:37.816Z,86.40
2022-09-03T15:20:15.062Z,87.70
2022-09-03T15:23:19.856Z,88.00
2022-09-03T15:25:49.941Z,86.10
2022-09-03T15:28:48.386Z,86.00
2022-09-03T15:31:33.439Z,87.00
2022-09-03T15:34:36.195Z,87.50
2022-09-03T15:37:13.822Z,89.30
2022-09-03T15:39:45.139Z,87.30
2022-09-03T15:42:27.425Z,87.30
2022-09-03T15:45:00.965Z,86.00
2022-09-03T15:47:51.920Z,87.00
2022-09-03T15:50:50.277Z,87.60
2022-09-03T15:53:25.550Z,89.30
2022-09-03T15:56:21.089Z,88.90
2022-09-03T15:59:03.233Z,90.20
2022-09-03T16:01:36.183Z,90.60
2022-09-03T16:04:15.780Z,90.90
2022-09-03T16:07:31.511Z,91.00
2022-09-03T16:10:25.508Z,90.80
2022-09-03T16:13:19.459Z,90.30
2022-09-03T16:16:03.692Z,90.60
2022-09-03T16:18:34.111Z,91.30
2022-09-03T16:21:16.030Z,92.30
2022-09-03T16:24:20.760Z,92.60
2022-09-03T16:26:56.412Z,91.60
2022-09-03T16:29:29.199Z,91.20
2022-09-03T16:32:03.179Z,91.90
2022-09-03T16:34:42.448Z,92.20
2022-09-03T16:37:22.122Z,92.90
2022-09-03T16:40:13.710Z,92.30
2022-09-03T16:42:47.715Z,92.70
2022-09-03T16:45:14.786Z,92.30
2022-09-03T16:48:11.049Z,93.20
2022-09-03T16:50:53.923Z,94.00
2022-09-03T16:53:30.295Z,94.70
2022-09-03T16:56:29.907Z,95.00
2022-09-03T16:59:06.008Z,94.00
2022-09-03T17:01:53.554Z,95.30
2022-09-03T17:04:54.385Z,94.50
2022-09-03T17:07:27.350Z,95.50
2022-09-03T17:10:03.565Z,95.70
2022-09-03T17:12:33.734Z,95.90
2022-09-03T17:15:21.323Z,95.60
2022-09-03T17:18:04.912Z,96.60
2022-09-03T17:20:47.185Z,97.40
2022-09-03T17:23:44.288Z,98.50
2022-09-03T17:26:15.646Z,98.30
2022-09-03T17:29:02.554Z,98.70
2022-09-03T17:31:57.380Z,99.50
2022-09-03T17:35:15.248Z,99.60
2022-09-03T17:38:01.816Z,99.70
2022-09-03T17:40:44.506Z,99.90
2022-09-03T17:43:28.308Z,99.90
2022-09-03T17:46:07.328Z,99.90
2022-09-03T17:48:59.202Z,99.90
2022-09-03T17:51:50.590Z,99.90
2022-09-03T17:54:23.588Z,99.90
2022-09-03T17:57:11.104Z,99.90
2022-09-03T17:59:56.349Z,99.90
2022-09-03T18:02:34.994Z,99.90
2022-09-03T18:05:20.868Z,99.90
2022-09-03T18:08:00.962Z,99.90
2022-09-03T18:10:40.296Z,99.90
2022-09-03T18:13:50.267Z,99.90
2022-09-03T18:16:31.814Z,99.90
2022-09-03T18:19:18.089Z,99.90
2022-09-03T18:22:08.119Z,99.90
2022-09-03T18:25:02.412Z,99.90
2022-09-03T18:27:57.369Z,99.90
2022-09-03T18:30:47.062Z,99.90
2022-09-03T18:33:34.692Z,99.90
2022-09-03T18:36:21.229Z,99.90
2022-09-03T18:39:06.830Z,99.90
2022-09-03T18:42:24.403Z,99.90
2022-09-03T18:46:07.935Z,99.90
2022-09-03T18:48:52.359Z,99.90
2022-09-03T18:51:41.258Z,99.90
2022-09-03T18:55:07.793Z,99.90
2022-09-03T18:58:06.242Z,99.90
2022-09-03T19:00:58.812Z,99.90
2022-09-03T19:04:06.219Z,99.90
2022-09-03T19:07:23.304Z,99.90
2022-09-03T19:10:12.238Z,99.90
2022-09-03T19:13:05.908Z,99.90
2022-09-03T19:16:04.647Z,99.90
2022-09-03T19:18:56.432Z,99.90
2022-09-03T19:22:02.017Z,99.90
2022-09-03T19:24:50.028Z,99.90
2022-09-03T19:27:59.337Z,99.90
2022-09-03T19:30:55.005Z,99.90
2022-09-03T19:34:03.852Z,99.90
2022-09-03T19:36:52.320Z,99.90
2022-09-03T19:39:43.980Z,99.90
2022-09-03T19:42:37.639Z,99.90
2022-09-03T19:45:42.649Z,99.90
2022-09-03T19:49:06.483Z,99.90
2022-09-03T19:52:10.178Z,99.90
2022-09-03T19:54:57.497Z,99.90
2022-09-03T19:57:45.016Z,99.90
2022-09-03T20:00:33.201Z,99.90
2022-09-03T20:03:21.199Z,99.90
2022-09-03T20:06:11.005Z,99.90
2022-09-03T20:08:57.672Z,99.90
2022-09-03T20:11:28.945Z,99.90
2022-09-03T20:14:13.868Z,99.90
2022-09-03T20:17:05.600Z,99.90
2022-09-03T20:19:37.514Z,99.90
2022-09-03T20:22:36.741Z,99.90
2022-09-03T20:25:14.842Z,99.90
2022-09-03T20:28:13.452Z,99.90
2022-09-03T20:30:46.166Z,99.90
2022-09-03T20:33:34.407Z,99.90
2022-09-03T20:36:16.965Z,99.90
2022-09-03T20:39:16.534Z,99.90
2022-09-03T20:42:03.863Z,99.90
2022-09-03T20:44:57.942Z,99.90
2022-09-03T20:47:39.889Z,99.90
2022-09-03T20:50:24.791Z,99.90
2022-09-03T20:53:43.694Z,99.90
2022-09-03T20:56:16.880Z,99.90
2022-09-03T20:58:49.976Z,99.90
2022-09-03T21:01:23.375Z,99.90
2022-09-03T21:03:56.254Z,99.90
2022-09-03T21:06:26.581Z,99.90
2022-09-03T21:09:02.575Z,99.90
2022-09-03T21:11:48.076Z,99.90
2022-09-03T21:14:54.743Z,99.90
2022-09-03T21:17:34.045Z,99.90
2022-09-03T21:20:31.552Z,99.90
2022-09-03T21:23:20.157Z,99.90
2022-09-03T21:26:10.064Z,99.90
2022-09-03T21:28:40.649Z,99.90
2022-09-03T21:31:38.504Z,99.90
2022-09-03T21:34:11.449Z,99.90
2022-09-03T21:36:42.435Z,99.90
2022-09-03T21:39:31.608Z,99.90
2022-09-03T21:42:03.561Z,99.90
2022-09-03T21:45:00.859Z,99.90
2022-09-03T21:47:31.891Z,99.90
2022-09-03T21:50:16.331Z,99.90
2022-09-03T21:52:53.527Z,99.90
2022-09-03T21:55:22.293Z,99.90
2022-09-03T21:58:03.507Z,99.90
2022-09-03T22:00:33.032Z,99.90
2022-09-03T22:03:00.953Z,99.90
2022-09-03T22:05:41.527Z,99.90
2022-09-03T22:08:26.208Z,99.90
2022-09-03T22:11:08.616Z,99.90
2022-09-03T22:13:46.023Z,99.90
2022-09-03T22:16:18.231Z,99.90
2022-09-03T22:18:45.397Z,99.90
2022-09-03T22:21:24.998Z,99.90
2022-09-03T22:24:26.703Z,99.90
2022-09-03T22:26:56.800Z,99.90
2022-09-03T22:29:46.827Z,99.90
2022-09-03T22:32:25.141Z,99.90
2022-09-03T22:35:33.881Z,99.90
2022-09-03T22:38:19.257Z,99.90
2022-09-03T22:41:04.242Z,99.90
2022-09-03T22:43:35.377Z,99.90
2022-09-03T22:46:19.270Z,99.90
2022-09-03T22:49:06.607Z,99.90
2022-09-03T22:52:05.840Z,99.90
2022-09-03T22:55:05.337Z,99.90
2022-09-03T22:57:38.635Z,99.90
2022-09-03T23:00:10.844Z,99.90
2022-09-03T23:02:40.307Z,99.90
2022-09-03T23:05:48.850Z,99.90
2022-09-03T23:08:47.765Z,99.90
2022-09-03T23:11:31.167Z,99.90
2022-09-03T23:14:08.396Z,99.90
2022-09-03T23:16:52.864Z,99.90
2022-09-03T23:22:03.013Z,99.90
2022-09-03T23:24:43.706Z,99.90
2022-09-03T23:27:17.640Z,99.90
2022-09-03T23:29:54.809Z,99.90
2022-09-03T23:32:23.295Z,99.90
2022-09-03T23:34:50.778Z,99.90
2022-09-03T23:37:38.520Z,99.90
2022-09-03T23:40:30.230Z,99.90
2022-09-03T23:43:24.943Z,99.90
2022-09-03T23:46:00.989Z,99.90
2022-09-03T23:48:45.175Z,99.90
2022-09-03T23:51:24.256Z,99.90
2022-09-03T23:53:54.791Z,99.90
2022-09-03T23:56:58.860Z,99.90
2022-09-03T23:59:29.157Z,99.90
